Time;durP1;ratioP1;P1;durP2;ratioP2;P2;SDS_P1;SDS_P2;PMS_P1;PMS_P2;Temp;Humidity;BMP_temperature;BMP_pressure;BME280_temperature;BME280_humidity;BME280_pressure;Samples;Min_cycle;Max_cycle;Signal;HPM_P1;HPM_P2
2021/12/24 00:01:28;;;;;;;;;;;;;;;4.08;100.00;97267.03;4150631;28;20045;-72
2021/12/24 00:03:28;;;;;;;3.13;2.60;;;;;;;4.07;100.00;97259.97;4149805;28;19917;-72
2021/12/24 00:05:29;;;;;;;3.70;2.05;;;;;;;4.12;100.00;97254.19;4148626;28;20054;-72
2021/12/24 00:07:29;;;;;;;2.83;2.33;;;;;;;4.17;100.00;97277.75;4149028;28;20137;-72
2021/12/24 00:09:32;;;;;;;2.63;2.28;;;;;;;4.24;100.00;97266.91;4149527;28;20117;-72
2021/12/24 00:11:35;;;;;;;3.60;2.25;;;;;;;4.25;100.00;97275.91;4149299;28;20068;-72
2021/12/24 00:13:41;;;;;;;3.50;2.20;;;;;;;4.28;100.00;97265.00;4150300;28;20050;-72
2021/12/24 00:17:42;;;;;;;3.25;2.03;;;;;;;4.41;100.00;97274.63;4148570;28;20331;-72
2021/12/24 00:35:56;;;;;;;2.92;2.35;;;;;;;4.78;100.00;97263.84;4155845;28;20079;-72
2021/12/24 00:38:03;;;;;;;3.53;2.42;;;;;;;4.81;100.00;97267.81;4154047;28;20041;-72
2021/12/24 00:40:15;;;;;;;3.28;2.83;;;;;;;4.78;100.00;97265.78;4153878;28;20178;-72
2021/12/24 00:42:16;;;;;;;4.63;2.70;;;;;;;4.78;100.00;97263.06;4154467;28;20281;-72
2021/12/24 00:44:16;;;;;;;3.25;2.10;;;;;;;4.90;100.00;97262.06;4153851;28;20124;-72
2021/12/24 00:46:17;;;;;;;2.83;2.05;;;;;;;4.93;100.00;97269.53;4154913;28;20045;-72
2021/12/24 00:48:20;;;;;;;3.42;2.72;;;;;;;4.95;100.00;97272.69;4153295;28;20442;-72
2021/12/24 00:50:25;;;;;;;4.80;2.22;;;;;;;4.88;100.00;97264.34;4155636;28;20033;-72
2021/12/24 00:56:47;;;;;;;3.17;2.30;;;;;;;5.11;100.00;97261.56;4154377;28;20293;-72
2021/12/24 00:58:47;;;;;;;6.20;3.00;;;;;;;5.10;100.00;97255.28;4153326;28;20475;-72
2021/12/24 01:00:48;;;;;;;5.22;3.35;;;;;;;5.14;100.00;97245.16;4154539;28;20075;-72
2021/12/24 01:02:50;;;;;;;4.97;3.38;;;;;;;5.18;100.00;97256.16;4155664;28;20050;-72
2021/12/24 01:04:50;;;;;;;4.47;2.78;;;;;;;5.14;100.00;97233.41;4153840;28;20136;-72
2021/12/24 01:06:51;;;;;;;3.97;2.80;;;;;;;5.16;100.00;97240.09;4153668;28;20081;-72
2021/12/24 01:08:51;;;;;;;5.35;3.03;;;;;;;5.24;100.00;97240.97;4154593;28;20383;-72
2021/12/24 01:10:58;;;;;;;4.65;3.00;;;;;;;5.16;100.00;97239.31;4154416;28;20049;-72
2021/12/24 01:12:59;;;;;;;4.72;2.95;;;;;;;5.10;100.00;97255.28;4152691;28;20072;-72
2021/12/24 01:14:59;;;;;;;4.85;3.08;;;;;;;5.11;100.00;97245.88;4154252;28;20675;-72
2021/12/24 01:17:13;;;;;;;5.88;3.92;;;;;;;5.14;100.00;97244.38;4154225;28;20052;-72
2021/12/24 01:19:19;;;;;;;5.28;3.75;;;;;;;5.18;100.00;97235.00;4153851;28;20088;-72
2021/12/24 01:21:41;;;;;;;6.07;4.20;;;;;;;5.25;100.00;97243.34;4154181;28;20080;-72
2021/12/24 01:23:54;;;;;;;4.38;3.28;;;;;;;5.32;100.00;97229.72;4154356;28;20045;-72
2021/12/24 01:26:09;;;;;;;3.53;3.08;;;;;;;5.31;100.00;97233.63;4152030;28;20418;-72
2021/12/24 01:39:37;;;;;;;4.95;2.50;;;;;;;5.33;100.00;97228.56;4154441;28;20461;-72
2021/12/24 01:43:56;;;;;;;3.90;2.80;;;;;;;5.24;100.00;97222.56;4153563;28;20060;-72
2021/12/24 01:45:59;;;;;;;2.80;2.17;;;;;;;5.25;100.00;97223.34;4154050;28;20041;-72
2021/12/24 01:48:11;;;;;;;3.75;2.88;;;;;;;5.28;100.00;97211.63;4152163;28;20534;-72
2021/12/24 01:50:12;;;;;;;3.60;2.10;;;;;;;5.36;100.00;97205.06;4154122;28;20049;-72
2021/12/24 01:52:15;;;;;;;3.70;2.50;;;;;;;5.45;100.00;97221.22;4152634;28;20033;-72
2021/12/24 01:54:15;;;;;;;4.15;2.80;;;;;;;5.46;100.00;97212.66;4154324;28;20320;-72
2021/12/24 01:56:16;;;;;;;3.42;2.55;;;;;;;5.54;100.00;97217.00;4153446;28;20041;-72
2021/12/24 01:58:24;;;;;;;5.18;2.80;;;;;;;5.54;100.00;97217.00;4152589;28;20116;-72
2021/12/24 02:00:31;;;;;;;4.28;3.05;;;;;;;5.55;100.00;97215.88;4152474;28;20037;-72
2021/12/24 02:02:31;;;;;;;4.18;2.80;;;;;;;5.50;100.00;97209.94;4153252;28;20467;-72
2021/12/24 02:04:33;;;;;;;4.75;3.30;;;;;;;5.47;100.00;97211.47;4153018;28;20049;-72
2021/12/24 02:06:33;;;;;;;6.18;3.45;;;;;;;5.43;100.00;97196.91;4152793;28;20042;-72
2021/12/24 02:08:34;;;;;;;4.30;3.40;;;;;;;5.33;100.00;97198.38;4154224;28;20076;-72
2021/12/24 02:10:34;;;;;;;5.35;3.63;;;;;;;5.32;100.00;97185.03;4150770;28;20041;-72
2021/12/24 02:12:36;;;;;;;5.85;3.33;;;;;;;5.30;100.00;97207.38;4154120;28;20126;-72
2021/12/24 02:14:38;;;;;;;5.45;3.92;;;;;;;5.36;100.00;97192.13;4153425;28;20034;-72
2021/12/24 02:30:19;;;;;;;7.35;5.07;;;;;;;5.48;100.00;97193.06;4153230;28;20049;-72
2021/12/24 02:32:19;;;;;;;;;;;;;;;5.56;100.00;97184.53;4154007;28;20111;-72
2021/12/24 02:34:20;;;;;;;11.45;6.45;;;;;;;5.57;100.00;97183.34;4154410;28;21965;-72
2021/12/24 02:36:21;;;;;;;8.52;5.85;;;;;;;5.62;100.00;97179.47;4152863;28;20045;-72
2021/12/24 02:38:22;;;;;;;8.77;6.35;;;;;;;5.62;100.00;97174.78;4151707;28;20069;-72
2021/12/24 02:40:22;;;;;;;11.05;6.85;;;;;;;5.63;100.00;97165.41;4150897;28;20045;-72
2021/12/24 02:42:23;;;;;;;9.93;6.30;;;;;;;5.71;100.00;97158.03;4152201;28;20061;-72
2021/12/24 02:44:24;;;;;;;10.93;7.32;;;;;;;5.70;100.00;97170.13;4152364;28;20498;-72
2021/12/24 02:46:30;;;;;;;12.30;7.13;;;;;;;5.72;100.00;97165.09;4153518;28;20096;-72
2021/12/24 02:55:16;;;;;;;11.68;7.55;;;;;;;5.73;100.00;97168.63;4151815;28;20552;-72
2021/12/24 02:57:20;;;;;;;15.15;7.65;;;;;;;5.81;100.00;97165.56;4152778;28;20053;-72
2021/12/24 02:59:28;;;;;;;11.73;8.48;;;;;;;5.82;100.00;97164.38;4152349;28;20053;-72
2021/12/24 03:01:33;;;;;;;12.57;8.45;;;;;;;5.87;100.00;97172.25;4152986;28;20037;-72
2021/12/24 03:03:33;;;;;;;11.30;7.70;;;;;;;5.90;100.00;97155.06;4151812;28;20446;-72
2021/12/24 03:05:33;;;;;;;12.25;8.15;;;;;;;5.98;100.00;97155.13;4153543;28;20127;-72
2021/12/24 03:07:34;;;;;;;13.07;7.93;;;;;;;6.00;100.00;97161.03;4152378;28;20160;-72
2021/12/24 03:09:34;;;;;;;10.57;7.05;;;;;;;6.00;100.00;97159.06;4151243;28;20089;-72
2021/12/24 03:11:36;;;;;;;12.25;7.65;;;;;;;6.04;100.00;97153.59;4151362;28;20138;-72
2021/12/24 03:13:38;;;;;;;13.27;7.83;;;;;;;6.05;100.00;97163.44;4150713;28;20489;-72
2021/12/24 03:15:40;;;;;;;11.25;7.53;;;;;;;6.13;100.00;97143.09;4152469;28;20043;-72
2021/12/24 03:17:46;;;;;;;12.05;7.40;;;;;;;6.17;100.00;97158.44;4152775;28;20045;-72
2021/12/24 03:19:46;;;;;;;14.32;7.82;;;;;;;6.18;100.00;97150.97;4151951;28;20050;-72
2021/12/24 03:21:55;;;;;;;10.05;6.78;;;;;;;6.17;100.00;97157.63;4152269;28;20054;-72
2021/12/24 03:26:04;;;;;;;10.65;6.97;;;;;;;6.20;100.00;97138.44;4151979;28;20661;-72
2021/12/24 03:28:05;;;;;;;10.00;7.22;;;;;;;6.17;100.00;97141.94;4152297;28;20065;-72
2021/12/24 03:30:06;;;;;;;11.40;7.10;;;;;;;6.18;100.00;97124.28;4151513;28;20506;-72
2021/12/24 03:32:07;;;;;;;11.23;6.72;;;;;;;6.19;100.00;97130.56;4152182;28;20037;-72
2021/12/24 03:34:10;;;;;;;10.05;6.75;;;;;;;6.32;100.00;97131.06;4151605;28;20240;-72
2021/12/24 03:36:10;;;;;;;10.57;7.25;;;;;;;6.30;100.00;97125.97;4152999;28;20034;-72
2021/12/24 03:38:11;;;;;;;10.80;6.95;;;;;;;6.27;100.00;97129.47;4151182;28;20358;-72
2021/12/24 03:40:11;;;;;;;9.73;6.28;;;;;;;6.31;100.00;97115.75;4151129;28;20402;-72
2021/12/24 03:42:12;;;;;;;9.02;6.20;;;;;;;6.30;100.00;97114.19;4152348;28;20076;-72
2021/12/24 03:44:14;;;;;;;9.07;5.90;;;;;;;6.31;100.00;97113.81;4151755;28;20022;-72
2021/12/24 03:46:18;;;;;;;;;;;;;;;6.30;100.00;97112.22;4153339;28;20061;-72
2021/12/24 03:48:25;;;;;;;8.68;5.78;;;;;;;6.23;100.00;97097.66;4149818;28;19968;-72
2021/12/24 03:50:38;;;;;;;8.70;5.57;;;;;;;6.28;100.00;97083.53;4152577;28;20446;-72
2021/12/24 03:54:56;;;;;;;9.87;5.60;;;;;;;6.40;100.00;97096.97;4151692;28;20049;-72
2021/12/24 03:56:56;;;;;;;8.32;5.40;;;;;;;6.42;100.00;97098.16;4151458;28;20197;-72
2021/12/24 03:58:57;;;;;;;8.13;5.55;;;;;;;6.43;100.00;97099.72;4153169;28;20301;-72
2021/12/24 04:00:57;;;;;;;8.85;5.65;;;;;;;6.41;100.00;97102.09;4151452;28;20072;-72
2021/12/24 04:02:58;;;;;;;8.77;5.35;;;;;;;6.41;100.00;97112.28;4151489;28;20037;-72
2021/12/24 04:04:58;;;;;;;8.85;5.85;;;;;;;6.43;100.00;97118.19;4152175;28;20049;-72
2021/12/24 04:06:58;;;;;;;8.35;5.20;;;;;;;6.41;100.00;97109.53;4151688;28;20045;-72
2021/12/24 04:08:59;;;;;;;8.05;4.80;;;;;;;6.48;100.00;97126.06;4150946;28;20773;-72
2021/12/24 04:11:00;;;;;;;7.95;4.93;;;;;;;6.50;100.00;97126.47;4150455;28;20850;-72
2021/12/24 04:13:00;;;;;;;8.25;5.53;;;;;;;6.51;100.00;97136.28;4152779;28;20056;-72
2021/12/24 04:15:01;;;;;;;9.07;5.63;;;;;;;6.54;100.00;97149.28;4151772;28;20049;-72
2021/12/24 04:17:02;;;;;;;8.45;5.13;;;;;;;6.45;100.00;97146.88;4151145;28;20045;-72
2021/12/24 04:25:42;;;;;;;7.35;4.95;;;;;;;6.38;100.00;97165.25;4150420;28;20060;-72
2021/12/24 04:27:43;;;;;;;8.77;5.57;;;;;;;6.38;100.00;97157.00;4149412;28;20042;-72
2021/12/24 04:29:43;;;;;;;8.27;5.35;;;;;;;6.39;100.00;97144.84;4151847;28;20403;-72
2021/12/24 04:31:51;;;;;;;9.15;5.90;;;;;;;6.49;100.00;97146.88;4151607;28;20132;-72
2021/12/24 04:33:57;;;;;;;8.20;5.72;;;;;;;6.43;99.94;97154.69;4151849;28;20426;-72
2021/12/24 04:36:07;;;;;;;6.53;4.60;;;;;;;6.41;100.00;97159.78;4152380;28;20450;-72
2021/12/24 04:51:04;;;;;;;8.90;5.43;;;;;;;6.47;100.00;97150.00;4152521;28;20151;-72
2021/12/24 04:52:02;;;;;;;7.82;4.95;;;;;;;6.52;99.57;97159.84;4150854;28;20056;-72
2021/12/24 05:03:10;;;;;;;6.72;4.63;;;;;;;6.39;100.00;97153.88;4149625;28;20853;-72
2021/12/24 05:05:21;;;;;;;6.85;4.55;;;;;;;6.33;100.00;97138.91;4151812;28;20049;-72
2021/12/24 05:07:48;;;;;;;7.82;4.70;;;;;;;6.33;100.00;97147.16;4150664;28;20057;-72
2021/12/24 05:09:42;;;;;;;8.52;4.80;;;;;;;6.30;100.00;97158.13;4151100;28;20046;-72
2021/12/24 05:11:42;;;;;;;8.27;4.55;;;;;;;6.27;100.00;97153.38;4154503;28;20056;-72
2021/12/24 05:13:43;;;;;;;7.38;4.15;;;;;;;6.29;100.00;97143.63;4154277;28;20072;-72
2021/12/24 05:15:48;;;;;;;7.55;4.60;;;;;;;6.36;99.75;97153.84;4153360;28;20124;-72
2021/12/24 05:22:16;;;;;;;5.95;4.00;;;;;;;6.34;99.03;97140.50;4154062;28;20529;-72
2021/12/24 05:24:19;;;;;;;7.95;4.35;;;;;;;6.33;100.00;97130.69;4155217;28;20034;-72
2021/12/24 05:26:20;;;;;;;6.13;4.35;;;;;;;6.28;100.00;97124.75;4153994;28;20078;-72
2021/12/24 05:28:21;;;;;;;7.10;4.70;;;;;;;6.29;100.00;97127.13;4154917;28;20041;-72
2021/12/24 05:30:22;;;;;;;8.13;5.53;;;;;;;6.33;100.00;97138.91;4152533;28;20052;-72
2021/12/24 05:32:23;;;;;;;6.25;4.57;;;;;;;6.35;99.96;97141.28;4153879;28;20053;-72
2021/12/24 05:34:23;;;;;;;7.07;4.80;;;;;;;6.36;99.62;97142.84;4155210;28;20303;-72
2021/12/24 05:36:23;;;;;;;6.40;4.38;;;;;;;6.35;99.60;97125.59;4152607;28;20084;-72
2021/12/24 05:38:24;;;;;;;5.70;4.25;;;;;;;6.34;99.00;97132.25;4153433;28;20045;-72
2021/12/24 05:40:24;;;;;;;7.90;4.45;;;;;;;6.35;98.95;97111.06;4151005;28;20095;-72
2021/12/24 05:42:27;;;;;;;7.85;4.07;;;;;;;6.33;99.56;97119.69;4154519;28;20455;-72
2021/12/24 05:44:27;;;;;;;;;;;;;;;6.31;99.55;97115.75;4151975;28;20041;-72
2021/12/24 05:46:27;;;;;;;6.78;4.60;;;;;;;6.32;99.20;97114.59;4154211;28;19916;-72
2021/12/24 05:48:28;;;;;;;8.07;5.07;;;;;;;6.28;99.45;97119.25;4154226;28;20045;-72
2021/12/24 05:50:29;;;;;;;7.30;4.78;;;;;;;6.31;98.91;97124.00;4153577;28;20041;-72
2021/12/24 05:52:29;;;;;;;6.70;4.57;;;;;;;6.32;98.76;97111.84;4154412;28;20445;-72
2021/12/24 05:54:30;;;;;;;8.30;5.00;;;;;;;6.34;98.67;97123.22;4154303;28;20050;-72
2021/12/24 05:56:30;;;;;;;7.47;4.25;;;;;;;6.34;99.29;97129.50;4153667;28;20326;-72
2021/12/24 05:58:31;;;;;;;6.25;4.63;;;;;;;6.31;99.25;97126.75;4152964;28;20184;-72
2021/12/24 06:00:31;;;;;;;6.85;4.90;;;;;;;6.28;99.28;97114.53;4146412;28;20416;-72
2021/12/24 06:02:33;;;;;;;6.68;4.80;;;;;;;6.33;98.95;97119.69;4138459;28;20037;-72
2021/12/24 06:04:33;;;;;;;7.97;4.85;;;;;;;6.29;99.20;97115.34;4136969;28;20061;-72
2021/12/24 06:06:33;;;;;;;6.53;4.32;;;;;;;6.33;99.10;97119.69;4136795;28;20121;-72
2021/12/24 06:08:34;;;;;;;7.22;4.68;;;;;;;6.31;99.13;97113.00;4136740;28;20057;-72
2021/12/24 06:10:35;;;;;;;6.40;4.75;;;;;;;6.25;99.58;97117.28;4136987;28;20037;-72
2021/12/24 06:12:36;;;;;;;8.25;4.88;;;;;;;6.25;99.47;97122.78;4136839;28;20038;-72
2021/12/24 06:14:36;;;;;;;7.05;5.00;;;;;;;6.30;99.30;97128.72;4137045;28;20069;-72
2021/12/24 06:16:45;;;;;;;5.80;4.15;;;;;;;6.31;99.12;97129.50;4136606;28;20046;-72
2021/12/24 06:18:46;;;;;;;7.32;5.15;;;;;;;6.28;99.69;97120.03;4136151;28;20064;-72
2021/12/24 06:20:47;;;;;;;7.05;4.45;;;;;;;6.23;99.48;97128.66;4135478;28;20148;-72
2021/12/24 06:22:48;;;;;;;6.88;4.35;;;;;;;6.25;99.51;97133.75;4137039;28;20048;-72
2021/12/24 06:24:48;;;;;;;6.80;4.50;;;;;;;6.25;99.82;97137.28;4136692;28;20229;-72
2021/12/24 06:26:50;;;;;;;5.68;4.20;;;;;;;6.29;99.01;97140.06;4136940;28;20065;-72
2021/12/24 06:28:50;;;;;;;6.25;4.25;;;;;;;6.30;99.14;97141.66;4137425;28;20041;-72
2021/12/24 06:30:52;;;;;;;6.93;4.78;;;;;;;6.37;98.21;97134.25;4137159;28;20650;-72
2021/12/24 06:32:52;;;;;;;7.07;4.40;;;;;;;6.37;98.52;97138.94;4136810;28;20049;-72
2021/12/24 06:34:52;;;;;;;7.93;4.22;;;;;;;6.28;98.68;97131.03;4136859;28;20495;-72
2021/12/24 06:36:53;;;;;;;5.32;3.90;;;;;;;6.34;98.20;97143.25;4136731;28;20072;-72
2021/12/24 06:38:54;;;;;;;5.45;4.07;;;;;;;6.38;98.33;97137.78;4137097;28;20379;-72
2021/12/24 06:40:54;;;;;;;6.40;4.70;;;;;;;6.42;97.81;97149.56;4136220;28;20068;-72
2021/12/24 06:42:55;;;;;;;6.32;4.47;;;;;;;6.43;97.38;97148.41;4136643;28;20038;-72
2021/12/24 06:44:55;;;;;;;6.82;4.68;;;;;;;6.42;97.37;97164.09;4135548;28;20053;-72
2021/12/24 06:46:56;;;;;;;5.90;4.10;;;;;;;6.38;97.58;97152.31;4134972;28;20053;-72
2021/12/24 06:48:56;;;;;;;8.38;5.45;;;;;;;6.39;97.59;97142.09;4137354;28;20446;-72
2021/12/24 06:50:57;;;;;;;6.45;4.72;;;;;;;6.41;97.45;97157.03;4136472;28;20038;-72
2021/12/24 06:52:57;;;;;;;6.63;4.50;;;;;;;6.40;97.30;97160.16;4136361;28;20042;-72
2021/12/24 06:54:57;;;;;;;7.18;4.70;;;;;;;6.45;97.06;97162.53;4136758;28;20507;-72
2021/12/24 06:56:58;;;;;;;7.22;4.70;;;;;;;6.43;97.09;97159.38;4136242;28;20040;-72
2021/12/24 06:58:58;;;;;;;6.00;4.38;;;;;;;6.43;97.15;97164.88;4136644;28;20045;-72
2021/12/24 07:00:59;;;;;;;7.38;4.82;;;;;;;6.43;96.63;97159.38;4136840;28;20058;-72
2021/12/24 07:02:59;;;;;;;5.55;3.92;;;;;;;6.42;96.37;97164.09;4135123;28;20046;-72
2021/12/24 07:05:00;;;;;;;5.60;4.20;;;;;;;6.40;96.21;97162.91;4136452;28;20048;-72
2021/12/24 07:07:00;;;;;;;5.40;4.43;;;;;;;6.35;96.59;97147.56;4135049;28;20053;-72
2021/12/24 07:09:02;;;;;;;6.13;4.50;;;;;;;6.42;96.41;97155.06;4136785;28;20045;-72
2021/12/24 07:11:03;;;;;;;7.00;4.10;;;;;;;6.42;96.08;97149.56;4134140;28;20121;-72
2021/12/24 07:13:04;;;;;;;6.93;4.25;;;;;;;6.41;95.88;97167.22;4136847;28;20321;-72
2021/12/24 07:15:05;;;;;;;5.68;3.90;;;;;;;6.39;96.02;97156.63;4136159;28;20060;-72
2021/12/24 07:17:06;;;;;;;5.80;4.47;;;;;;;6.35;95.85;97149.53;4135265;28;20041;-72
2021/12/24 07:19:06;;;;;;;7.45;4.30;;;;;;;6.29;96.24;97151.03;4135850;28;20415;-72
2021/12/24 07:21:07;;;;;;;6.15;4.70;;;;;;;6.24;96.29;97149.47;4135641;28;20046;-72
2021/12/24 07:23:07;;;;;;;6.50;4.32;;;;;;;6.24;96.27;97146.72;4136669;28;20052;-72
2021/12/24 07:25:08;;;;;;;7.22;4.38;;;;;;;6.21;96.22;97166.72;4134035;28;20483;-72
2021/12/24 07:27:09;;;;;;;6.00;3.80;;;;;;;6.27;95.66;97150.66;4135263;28;20046;-72
2021/12/24 07:29:09;;;;;;;5.75;3.50;;;;;;;6.31;95.28;97155.00;4134843;28;20046;-72
2021/12/24 07:31:09;;;;;;;4.82;3.50;;;;;;;6.34;95.71;97156.97;4136877;28;20392;-72
2021/12/24 07:33:14;;;;;;;6.35;3.53;;;;;;;6.34;94.97;97161.69;4135647;28;20081;-72
2021/12/24 07:35:15;;;;;;;6.32;3.72;;;;;;;6.29;95.07;97159.28;4136803;28;20895;-72
2021/12/24 07:37:15;;;;;;;4.72;3.50;;;;;;;6.29;95.84;97156.53;4134067;28;20042;-72
2021/12/24 07:39:16;;;;;;;7.50;4.05;;;;;;;6.38;95.43;97162.50;4135552;28;20533;-72
2021/12/24 07:41:18;;;;;;;5.40;3.60;;;;;;;6.31;95.95;97156.97;4135945;28;20434;-72
2021/12/24 07:43:19;;;;;;;5.35;3.75;;;;;;;6.26;96.02;97158.09;4134011;28;20483;-72
2021/12/24 07:45:19;;;;;;;4.43;3.30;;;;;;;6.33;95.72;97168.34;4144360;28;20140;-72
2021/12/24 07:47:27;;;;;;;4.75;3.53;;;;;;;6.32;95.66;97155.78;4150021;28;20054;-72
2021/12/24 07:53:47;;;;;;;5.63;3.70;;;;;;;6.24;96.26;97134.94;4150510;28;20593;-72
2021/12/24 07:55:48;;;;;;;3.80;3.15;;;;;;;6.29;96.01;97129.88;4150526;28;20328;-72
2021/12/24 07:57:51;;;;;;;4.07;3.05;;;;;;;6.29;95.23;97137.31;4150818;28;20489;-72
2021/12/24 07:59:51;;;;;;;;;;;;;;;6.46;94.17;97144.91;4148741;28;20061;-72
2021/12/24 08:01:56;;;;;;;4.47;3.10;;;;;;;6.34;94.76;97147.94;4152148;28;20718;-72
2021/12/24 08:03:57;;;;;;;4.72;2.70;;;;;;;6.43;94.10;97167.63;4150106;28;20046;-72
2021/12/24 08:05:57;;;;;;;3.53;2.80;;;;;;;6.40;93.96;97152.72;4149358;28;20063;-72
2021/12/24 08:07:57;;;;;;;3.85;2.88;;;;;;;6.38;95.25;97152.31;4151610;28;20038;-72
2021/12/24 08:09:58;;;;;;;5.38;3.28;;;;;;;6.42;94.43;97163.31;4149590;28;20045;-72
2021/12/24 08:11:58;;;;;;;4.93;2.65;;;;;;;6.37;94.78;97158.16;4149737;28;20417;-72
2021/12/24 08:14:00;;;;;;;5.03;2.95;;;;;;;6.46;94.43;97175.13;4149709;28;20454;-72
2021/12/24 08:16:01;;;;;;;4.10;3.08;;;;;;;6.51;93.56;97166.50;4149253;28;20037;-72
2021/12/24 08:18:01;;;;;;;8.98;4.30;;;;;;;6.52;93.56;97170.81;4149840;28;20021;-72
2021/12/24 08:20:04;;;;;;;5.95;3.95;;;;;;;6.57;93.25;97177.94;4149623;28;20395;-72
2021/12/24 08:22:05;;;;;;;4.10;2.97;;;;;;;6.59;92.78;97165.38;4149602;28;20589;-72
2021/12/24 08:24:06;;;;;;;4.88;3.10;;;;;;;6.56;93.23;97168.91;4149554;28;20476;-72
2021/12/24 08:26:07;;;;;;;3.88;2.92;;;;;;;6.54;93.10;97175.94;4149480;28;20065;-72
2021/12/24 08:28:07;;;;;;;5.57;3.22;;;;;;;6.60;92.73;97185.41;4148173;28;20095;-72
2021/12/24 08:30:08;;;;;;;3.72;2.85;;;;;;;6.64;91.80;97167.78;4150340;28;20033;-72
2021/12/24 08:32:09;;;;;;;4.80;2.63;;;;;;;6.66;91.04;97167.38;4149907;28;20037;-72
2021/12/24 08:34:11;;;;;;;3.35;2.90;;;;;;;6.66;91.75;97170.91;4148011;28;20040;-72
2021/12/24 08:36:11;;;;;;;4.60;2.92;;;;;;;6.70;90.86;97168.19;4150941;28;20319;-72
2021/12/24 08:38:12;;;;;;;4.97;3.13;;;;;;;6.66;91.55;97164.63;4148714;28;20033;-72
2021/12/24 08:40:14;;;;;;;4.53;3.13;;;;;;;6.64;91.23;97159.53;4148389;28;20342;-72
2021/12/24 08:42:16;;;;;;;4.47;3.30;;;;;;;6.63;91.94;97148.94;4149201;28;20117;-72
2021/12/24 08:44:17;;;;;;;6.65;3.83;;;;;;;6.56;92.30;97159.88;4152198;28;20041;-72
2021/12/24 08:46:18;;;;;;;6.20;4.70;;;;;;;6.57;91.53;97154.00;4150741;28;20037;-72
2021/12/24 08:48:19;;;;;;;4.78;3.20;;;;;;;6.52;91.51;97162.59;4151611;28;20041;-72
2021/12/24 08:50:19;;;;;;;6.68;3.90;;;;;;;6.54;91.22;97143.78;4153314;28;20033;-72
2021/12/24 08:52:20;;;;;;;5.65;3.67;;;;;;;6.61;90.74;97159.50;4150988;28;20033;-72
2021/12/24 08:54:21;;;;;;;5.28;3.65;;;;;;;6.56;91.54;97157.91;4152817;28;20049;-72
2021/12/24 08:56:22;;;;;;;4.35;3.47;;;;;;;6.53;91.69;97164.16;4152009;28;20074;-72
2021/12/24 08:58:23;;;;;;;4.80;3.50;;;;;;;6.58;91.01;97158.31;4151172;28;20577;-73
2021/12/24 09:00:24;;;;;;;7.00;3.90;;;;;;;6.61;90.70;97159.50;4151926;28;20453;-72
2021/12/24 09:02:25;;;;;;;7.45;4.03;;;;;;;6.67;89.74;97168.97;4152697;28;20100;-72
2021/12/24 09:04:25;;;;;;;5.35;4.05;;;;;;;6.65;90.64;97174.84;4152737;28;20076;-72
2021/12/24 09:06:25;;;;;;;6.63;3.90;;;;;;;6.64;90.75;97169.75;4153058;28;20458;-72
2021/12/24 09:08:26;;;;;;;9.10;4.78;;;;;;;6.71;89.72;97151.34;4151177;28;20041;-72
2021/12/24 09:10:27;;;;;;;6.95;3.65;;;;;;;6.76;89.38;97159.19;4151647;28;20038;-72
2021/12/24 09:12:27;;;;;;;4.47;3.20;;;;;;;6.80;89.42;97170.22;4153096;28;20077;-72
2021/12/24 09:14:27;;;;;;;4.35;3.22;;;;;;;6.89;88.03;97172.63;4151435;28;20402;-72
2021/12/24 09:16:28;;;;;;;7.07;3.97;;;;;;;6.93;88.24;97165.16;4151413;28;20076;-72
2021/12/24 09:18:28;;;;;;;5.88;3.80;;;;;;;6.95;87.72;97180.13;4151990;28;20086;-72
2021/12/24 09:20:35;;;;;;;6.13;4.13;;;;;;;6.92;88.69;97171.84;4149865;28;20092;-72
2021/12/24 09:22:37;;;;;;;5.38;3.60;;;;;;;6.91;88.24;97184.81;4151593;28;20045;-72
2021/12/24 09:24:37;;;;;;;5.57;3.67;;;;;;;6.94;88.50;97184.03;4152587;28;20111;-72
2021/12/24 09:26:38;;;;;;;4.82;3.20;;;;;;;6.99;88.09;97183.66;4150250;28;20534;-72
2021/12/24 09:28:39;;;;;;;4.68;3.35;;;;;;;6.97;87.55;97179.72;4151720;28;20052;-72
2021/12/24 09:30:39;;;;;;;9.52;5.15;;;;;;;7.04;87.71;97183.31;4151628;28;20450;-72
2021/12/24 09:32:41;;;;;;;5.78;4.03;;;;;;;7.01;87.41;97178.56;4152667;28;20392;-72
2021/12/24 09:34:41;;;;;;;6.20;4.25;;;;;;;7.03;86.38;97183.66;4151666;28;20048;-72
2021/12/24 09:36:42;;;;;;;6.95;3.42;;;;;;;7.07;86.33;97190.00;4151307;28;20045;-72
2021/12/24 09:38:42;;;;;;;5.45;3.83;;;;;;;7.12;86.71;97186.09;4151424;28;20048;-72
2021/12/24 09:40:42;;;;;;;5.38;3.60;;;;;;;7.13;86.30;97187.66;4149513;28;20038;-72
2021/12/24 09:42:43;;;;;;;5.00;3.80;;;;;;;7.13;85.59;97188.44;4148723;28;20053;-72
2021/12/24 09:44:44;;;;;;;6.50;4.03;;;;;;;7.12;86.11;97186.09;4148427;28;20175;-72
2021/12/24 09:46:44;;;;;;;9.38;4.68;;;;;;;7.12;86.28;97183.34;4149730;28;20045;-73
2021/12/24 09:48:44;;;;;;;7.53;4.28;;;;;;;7.08;85.98;97174.28;4148558;28;20046;-72
2021/12/24 09:50:45;;;;;;;6.85;4.13;;;;;;;7.11;84.86;97184.50;4149431;28;20161;-72
2021/12/24 09:52:46;;;;;;;5.20;3.72;;;;;;;7.19;84.00;97175.09;4149151;28;20049;-72
2021/12/24 09:54:47;;;;;;;5.20;3.90;;;;;;;7.18;85.21;97173.53;4148549;28;20107;-72
2021/12/24 09:56:50;;;;;;;5.38;3.75;;;;;;;7.15;84.14;97157.81;4149228;28;20045;-72
2021/12/24 09:58:50;;;;;;;7.47;4.07;;;;;;;7.16;84.66;97156.63;4150850;28;20127;-73
2021/12/24 10:00:51;;;;;;;5.15;3.85;;;;;;;7.16;84.61;97153.88;4148494;28;20116;-72
2021/12/24 10:02:55;;;;;;;5.75;4.13;;;;;;;7.13;84.75;97158.19;4150531;28;20041;-72
2021/12/24 10:04:55;;;;;;;5.88;3.78;;;;;;;7.12;85.47;97153.09;4150121;28;20041;-72
2021/12/24 10:07:11;;;;;;;5.90;3.53;;;;;;;7.18;83.99;97148.78;4147423;28;20403;-72
2021/12/24 10:09:12;;;;;;;3.90;2.72;;;;;;;7.25;83.44;97157.06;4148750;28;20049;-72
2021/12/24 10:11:14;;;;;;;4.00;3.08;;;;;;;7.25;82.93;97149.59;4147820;28;20385;-72
2021/12/24 10:13:43;;;;;;;6.63;3.72;;;;;;;7.23;84.26;97160.19;4150906;28;20045;-72
2021/12/24 10:16:01;;;;;;;6.22;3.67;;;;;;;7.22;82.87;97150.38;4148029;28;20487;-72
2021/12/24 10:18:21;;;;;;;4.63;3.58;;;;;;;7.24;83.37;97153.50;4147606;28;20044;-72
2021/12/24 10:20:21;;;;;;;5.18;3.80;;;;;;;7.28;82.64;97154.31;4148455;28;20054;-72
2021/12/24 10:22:23;;;;;;;6.35;3.58;;;;;;;7.32;82.64;97157.06;4150892;28;20046;-72
2021/12/24 10:24:26;;;;;;;6.68;3.97;;;;;;;7.25;83.18;97146.81;4149733;28;20056;-72
2021/12/24 10:26:32;;;;;;;6.32;3.67;;;;;;;7.28;83.20;97153.50;4148359;28;20523;-72
2021/12/24 10:28:33;;;;;;;7.15;3.97;;;;;;;7.27;83.19;97149.19;4149009;28;20053;-72
2021/12/24 10:30:33;;;;;;;6.05;3.90;;;;;;;7.21;84.27;97154.31;4150684;28;20049;-72
2021/12/24 10:32:39;;;;;;;7.25;4.25;;;;;;;7.24;84.07;97158.22;4150979;28;20044;-72
2021/12/24 10:34:42;;;;;;;7.13;3.75;;;;;;;7.28;83.53;97159.81;4150819;28;20124;-72
2021/12/24 10:36:54;;;;;;;6.43;3.65;;;;;;;7.26;83.49;97167.66;4150762;28;20041;-72
2021/12/24 10:38:55;;;;;;;6.83;4.47;;;;;;;7.30;83.11;97162.97;4150027;28;20487;-72
2021/12/24 10:41:01;;;;;;;6.13;3.83;;;;;;;7.30;83.35;97157.47;4150934;28;20469;-72
2021/12/24 10:43:01;;;;;;;7.55;3.67;;;;;;;7.27;83.70;97165.69;4151730;28;20467;-72
2021/12/24 10:45:07;;;;;;;7.53;4.40;;;;;;;7.31;83.45;97172.00;4150585;28;20053;-72
2021/12/24 10:47:15;;;;;;;7.72;4.18;;;;;;;7.33;82.44;97175.16;4148466;28;20156;-72
2021/12/24 10:49:24;;;;;;;11.50;4.75;;;;;;;7.30;83.14;97167.69;4149340;28;20049;-72
2021/12/24 10:51:53;;;;;;;7.15;4.20;;;;;;;7.32;82.77;97163.38;4150623;28;20038;-72
2021/12/24 10:54:04;;;;;;;5.65;4.05;;;;;;;7.32;83.26;97165.34;4149424;28;20045;-72
2021/12/24 10:56:06;;;;;;;5.22;4.38;;;;;;;7.29;83.06;97160.63;4151049;28;20301;-72
2021/12/24 10:58:15;;;;;;;11.60;4.65;;;;;;;7.24;83.54;97164.50;4148719;28;20033;-72
2021/12/24 11:00:21;;;;;;;8.25;3.97;;;;;;;7.24;83.94;97167.25;4149504;28;20096;-72
2021/12/24 11:02:35;;;;;;;7.55;4.82;;;;;;;7.28;82.95;97159.00;4151837;28;20385;-72
2021/12/24 11:04:36;;;;;;;6.93;4.68;;;;;;;7.24;83.94;97164.50;4148973;28;20056;-72
2021/12/24 11:06:37;;;;;;;5.80;3.92;;;;;;;7.26;82.91;97155.88;4148576;28;20053;-72
2021/12/24 11:08:39;;;;;;;8.05;4.38;;;;;;;7.24;83.25;97169.22;4148216;28;20538;-72
2021/12/24 11:10:43;;;;;;;10.83;4.43;;;;;;;7.24;83.37;97156.25;4150543;28;20047;-72
2021/12/24 11:12:49;;;;;;;6.20;4.50;;;;;;;7.20;83.61;97158.22;4148464;28;20072;-72
2021/12/24 11:14:49;;;;;;;7.28;3.97;;;;;;;7.21;83.12;97157.06;4150667;28;20064;-72
2021/12/24 11:16:50;;;;;;;7.88;4.70;;;;;;;7.16;84.21;97146.41;4150000;28;20049;-72
2021/12/24 11:19:00;;;;;;;5.97;3.70;;;;;;;7.20;83.26;97149.16;4148835;28;20068;-72